Time;durP1;ratioP1;P1;durP2;ratioP2;P2;SDS_P1;SDS_P2;PMS_P1;PMS_P2;Temp;Humidity;BMP_temperature;BMP_pressure;BME280_temperature;BME280_humidity;BME280_pressure;Samples;Min_cycle;Max_cycle;Signal;HPM_P1;HPM_P2
2023/05/11 00:00:43;;;;;;;1.60;0.87;;;11.30;99.90;;;;;;5013815;28;20514;-69
2023/05/11 00:03:13;;;;;;;1.57;1.20;;;11.20;99.90;;;;;;5013879;28;20528;-69
2023/05/11 00:05:41;;;;;;;1.67;1.50;;;11.20;99.90;;;;;;5014583;28;20461;-69
2023/05/11 00:08:09;;;;;;;1.47;1.10;;;11.20;99.90;;;;;;5013963;28;21001;-69
2023/05/11 00:10:37;;;;;;;1.60;1.30;;;11.30;99.90;;;;;;5014572;28;20595;-69
2023/05/11 00:13:05;;;;;;;1.23;1.13;;;11.40;99.90;;;;;;5013362;28;20471;-69
2023/05/11 00:15:32;;;;;;;1.37;1.10;;;11.30;99.90;;;;;;5014826;28;20488;-70
2023/05/11 00:18:00;;;;;;;1.37;1.00;;;11.50;99.90;;;;;;5014423;28;20963;-69
2023/05/11 00:20:30;;;;;;;2.00;1.10;;;11.60;99.90;;;;;;5016120;28;20444;-70
2023/05/11 00:22:57;;;;;;;3.73;1.20;;;11.60;99.90;;;;;;5015291;28;20455;-68
2023/05/11 00:25:25;;;;;;;1.30;1.20;;;11.60;99.90;;;;;;5014579;28;20455;-69
2023/05/11 00:27:53;;;;;;;1.30;1.20;;;11.60;99.90;;;;;;5014709;28;20539;-69
2023/05/11 00:30:21;;;;;;;5.40;1.30;;;11.50;99.90;;;;;;5014644;28;20538;-69
2023/05/11 00:32:50;;;;;;;1.30;1.20;;;11.30;99.90;;;;;;5012898;28;20545;-69
2023/05/11 00:35:19;;;;;;;1.33;0.90;;;11.30;99.90;;;;;;5012940;28;20539;-69
2023/05/11 00:37:48;;;;;;;2.00;1.30;;;11.30;99.90;;;;;;5012285;28;21026;-70
2023/05/11 00:40:16;;;;;;;1.57;1.43;;;11.20;99.90;;;;;;5012467;28;20870;-69
2023/05/11 00:42:44;;;;;;;4.10;1.30;;;11.20;99.90;;;;;;5010825;28;20449;-69
2023/05/11 00:45:12;;;;;;;2.37;1.40;;;11.20;99.90;;;;;;5012076;28;20499;-69
2023/05/11 00:47:41;;;;;;;1.90;1.23;;;11.30;99.90;;;;;;5011567;28;20538;-70
2023/05/11 00:50:09;;;;;;;3.40;1.27;;;11.30;99.90;;;;;;5011818;28;20530;-69
2023/05/11 00:52:37;;;;;;;5.30;1.20;;;11.20;99.90;;;;;;5010626;28;20958;-70
2023/05/11 00:55:07;;;;;;;2.50;1.27;;;11.30;99.90;;;;;;5011844;28;20490;-69
2023/05/11 00:57:35;;;;;;;2.40;1.00;;;11.30;99.90;;;;;;5013145;28;20498;-69
2023/05/11 01:00:05;;;;;;;2.10;1.30;;;11.20;99.90;;;;;;5011465;28;20530;-69
2023/05/11 01:02:34;;;;;;;4.13;1.30;;;11.20;99.90;;;;;;5011443;28;20453;-69
2023/05/11 01:05:02;;;;;;;1.50;1.00;;;11.20;99.90;;;;;;5011385;28;20468;-70
2023/05/11 01:07:36;;;;;;;2.50;1.43;;;11.30;99.90;;;;;;5012124;28;20448;-69
2023/05/11 01:10:13;;;;;;;3.30;1.40;;;11.30;99.90;;;;;;5011965;28;20444;-70
2023/05/11 01:12:48;;;;;;;2.20;1.37;;;11.30;99.90;;;;;;5010459;28;20464;-69
2023/05/11 01:15:24;;;;;;;3.70;1.30;;;11.30;99.90;;;;;;5012001;28;20537;-69
2023/05/11 01:18:01;;;;;;;1.60;1.50;;;11.30;99.90;;;;;;5011754;28;20444;-68
2023/05/11 01:20:30;;;;;;;1.40;1.30;;;11.20;99.90;;;;;;5012352;28;20463;-69
2023/05/11 01:23:47;;;;;;;2.23;1.57;;;11.30;99.90;;;;;;5010825;28;20827;-70
2023/05/11 01:26:38;;;;;;;1.47;1.37;;;11.30;99.90;;;;;;4977854;28;21004;-69
2023/05/11 01:29:17;;;;;;;2.00;1.73;;;11.20;99.90;;;;;;5011604;28;20474;-70
2023/05/11 01:31:47;;;;;;;3.87;1.80;;;11.10;99.90;;;;;;5011588;28;20439;-69
2023/05/11 01:34:21;;;;;;;2.50;1.67;;;11.10;99.90;;;;;;5009857;28;20967;-70
2023/05/11 01:36:53;;;;;;;1.77;1.60;;;11.20;99.90;;;;;;5011460;28;21003;-70
2023/05/11 01:39:26;;;;;;;2.20;1.67;;;11.20;99.90;;;;;;5010873;28;20483;-69
2023/05/11 01:41:55;;;;;;;1.97;1.63;;;11.20;99.90;;;;;;5011290;28;20449;-69
2023/05/11 01:44:25;;;;;;;2.70;1.67;;;11.20;99.90;;;;;;5010283;28;20444;-69
2023/05/11 01:46:56;;;;;;;1.37;1.20;;;11.30;99.90;;;;;;5011177;28;20443;-69
2023/05/11 01:49:24;;;;;;;2.30;1.53;;;11.40;99.90;;;;;;5011517;28;20436;-69
2023/05/11 01:51:54;;;;;;;1.80;1.40;;;11.40;99.90;;;;;;5011179;28;20564;-69
2023/05/11 01:54:24;;;;;;;3.30;1.53;;;11.30;99.90;;;;;;5010270;28;20942;-69
2023/05/11 01:56:53;;;;;;;1.40;1.30;;;11.30;99.90;;;;;;5011561;28;20926;-69
2023/05/11 01:59:22;;;;;;;1.47;1.17;;;11.30;99.90;;;;;;5010927;28;20460;-68
2023/05/11 02:01:50;;;;;;;1.93;1.37;;;11.30;99.90;;;;;;5010820;28;20450;-69
2023/05/11 02:04:21;;;;;;;2.53;1.33;;;11.20;99.90;;;;;;5009575;28;20454;-70
2023/05/11 02:06:50;;;;;;;1.50;1.30;;;11.10;99.90;;;;;;5011536;28;20992;-69
2023/05/11 02:09:19;;;;;;;2.13;1.77;;;11.10;99.90;;;;;;5010858;28;20905;-69
2023/05/11 02:11:47;;;;;;;2.27;1.60;;;11.20;99.90;;;;;;5010729;28;20440;-69
2023/05/11 02:14:17;;;;;;;1.50;1.40;;;11.30;99.90;;;;;;5009973;28;20444;-69
2023/05/11 02:16:47;;;;;;;4.43;1.67;;;11.30;99.90;;;;;;5010566;28;20572;-69
2023/05/11 02:19:16;;;;;;;1.87;1.70;;;11.20;99.90;;;;;;5011147;28;20444;-69
2023/05/11 02:21:47;;;;;;;4.20;1.60;;;11.30;99.90;;;;;;5010680;28;20444;-69
2023/05/11 02:24:16;;;;;;;2.57;1.43;;;11.40;99.90;;;;;;5009780;28;20435;-69
2023/05/11 02:26:45;;;;;;;2.03;1.60;;;11.30;99.90;;;;;;5011286;28;20504;-69
2023/05/11 02:29:13;;;;;;;2.87;1.63;;;11.30;99.90;;;;;;5011054;28;20446;-70
2023/05/11 02:31:45;;;;;;;1.70;1.60;;;11.30;99.90;;;;;;5010919;28;20539;-69
2023/05/11 02:34:20;;;;;;;1.77;1.40;;;11.30;99.90;;;;;;5009768;28;20446;-69
2023/05/11 02:36:51;;;;;;;1.70;1.60;;;11.30;99.90;;;;;;5011455;28;20486;-69
2023/05/11 02:39:21;;;;;;;2.97;1.80;;;11.50;99.90;;;;;;5011612;28;20542;-69
2023/05/11 02:41:56;;;;;;;2.40;1.57;;;11.50;99.90;;;;;;5011266;28;20934;-68
2023/05/11 02:44:28;;;;;;;5.63;1.37;;;11.50;99.90;;;;;;5009925;28;20445;-69
2023/05/11 02:47:00;;;;;;;1.40;1.30;;;11.40;99.90;;;;;;5011282;28;20962;-69
2023/05/11 02:49:30;;;;;;;2.23;1.27;;;11.40;99.90;;;;;;5011285;28;20467;-69
2023/05/11 02:52:01;;;;;;;2.50;1.73;;;11.50;99.90;;;;;;5011347;28;20531;-70
2023/05/11 02:54:31;;;;;;;2.03;1.43;;;11.50;99.90;;;;;;5010873;28;20454;-69
2023/05/11 02:57:00;;;;;;;1.60;0.93;;;11.60;99.90;;;;;;5011436;28;20486;-70
2023/05/11 02:59:28;;;;;;;2.53;1.30;;;11.60;99.90;;;;;;5011677;28;20455;-70
2023/05/11 03:01:56;;;;;;;3.40;1.20;;;11.70;99.90;;;;;;5011863;28;20481;-70
2023/05/11 03:04:24;;;;;;;2.00;1.53;;;11.70;99.90;;;;;;5010705;28;20807;-69
2023/05/11 03:06:52;;;;;;;3.07;1.00;;;11.70;99.90;;;;;;5012834;28;20577;-69
2023/05/11 03:09:22;;;;;;;1.40;1.00;;;11.70;99.90;;;;;;5013486;28;20836;-69
2023/05/11 03:11:51;;;;;;;1.57;1.47;;;11.70;99.90;;;;;;5010678;28;20448;-69
2023/05/11 03:14:19;;;;;;;2.93;1.00;;;11.80;99.90;;;;;;5008953;28;20450;-69
2023/05/11 03:16:48;;;;;;;1.90;1.30;;;11.80;99.90;;;;;;5010231;28;20564;-69
2023/05/11 03:19:17;;;;;;;1.17;0.70;;;11.80;99.90;;;;;;5010301;28;20954;-69
2023/05/11 03:21:46;;;;;;;2.20;1.27;;;11.90;99.90;;;;;;5010001;28;20526;-69
2023/05/11 03:24:14;;;;;;;1.43;1.00;;;11.80;99.80;;;;;;5009133;28;20686;-68
2023/05/11 03:26:44;;;;;;;1.97;1.20;;;11.90;99.30;;;;;;5010363;28;20443;-69
2023/05/11 03:29:14;;;;;;;1.90;0.97;;;11.90;99.10;;;;;;5013786;28;20500;-69
2023/05/11 03:31:42;;;;;;;1.33;0.83;;;11.90;99.00;;;;;;5013519;28;20453;-69
2023/05/11 03:34:10;;;;;;;1.90;1.20;;;11.90;99.20;;;;;;5012441;28;20952;-69
2023/05/11 03:36:39;;;;;;;1.93;1.10;;;11.80;99.70;;;;;;5013311;28;20485;-69
2023/05/11 03:39:08;;;;;;;1.63;1.27;;;11.80;99.80;;;;;;5013302;28;20455;-69
2023/05/11 03:41:39;;;;;;;4.47;1.20;;;11.80;99.80;;;;;;5013588;28;20475;-68
2023/05/11 03:44:11;;;;;;;1.50;1.00;;;11.80;99.90;;;;;;5011884;28;20808;-69
2023/05/11 03:46:41;;;;;;;1.33;1.17;;;11.70;99.60;;;;;;5013612;28;20458;-69
2023/05/11 03:49:09;;;;;;;1.40;1.20;;;11.80;99.20;;;;;;5013496;28;20480;-69
2023/05/11 03:51:40;;;;;;;2.87;1.03;;;11.80;99.40;;;;;;5013670;28;20448;-69
2023/05/11 03:54:09;;;;;;;6.93;1.80;;;11.80;99.60;;;;;;5012262;28;20448;-70
2023/05/11 03:56:37;;;;;;;2.40;1.47;;;11.80;99.60;;;;;;5013236;28;20482;-68
2023/05/11 03:59:05;;;;;;;1.90;1.17;;;11.80;99.00;;;;;;5013292;28;20533;-69
2023/05/11 04:01:35;;;;;;;1.43;1.33;;;11.70;99.90;;;;;;5013399;28;20450;-69
2023/05/11 04:04:03;;;;;;;1.03;0.93;;;11.70;99.80;;;;;;5012653;28;20619;-68
2023/05/11 04:06:31;;;;;;;1.73;1.40;;;11.70;99.60;;;;;;5013258;28;20987;-69
2023/05/11 04:08:59;;;;;;;1.10;1.00;;;11.70;99.90;;;;;;5013909;28;20485;-69
2023/05/11 04:11:29;;;;;;;1.40;1.30;;;11.70;99.00;;;;;;5014205;28;21141;-70
2023/05/11 04:13:57;;;;;;;2.20;1.23;;;11.70;99.80;;;;;;5016215;28;20442;-69
2023/05/11 04:16:25;;;;;;;1.00;0.90;;;11.70;99.30;;;;;;5020024;28;20535;-69
2023/05/11 04:18:54;;;;;;;1.33;1.23;;;11.70;99.50;;;;;;5018198;28;20540;-69
2023/05/11 04:21:22;;;;;;;1.23;1.13;;;11.70;99.00;;;;;;5017529;28;20983;-69
2023/05/11 04:23:50;;;;;;;1.67;1.10;;;11.70;98.90;;;;;;5015819;28;21007;-69
2023/05/11 04:26:18;;;;;;;4.93;1.50;;;11.70;98.90;;;;;;5017023;28;20845;-69
2023/05/11 04:28:45;;;;;;;2.30;1.40;;;11.70;98.90;;;;;;5017173;28;20442;-68
2023/05/11 04:31:13;;;;;;;1.33;1.23;;;11.80;99.00;;;;;;5000505;28;20439;-72
2023/05/11 04:33:41;;;;;;;3.50;1.33;;;11.80;99.10;;;;;;4997061;28;20487;-70
2023/05/11 04:36:11;;;;;;;3.37;1.23;;;11.80;99.60;;;;;;4996675;28;20479;-71
2023/05/11 04:38:39;;;;;;;1.03;1.00;;;11.80;99.70;;;;;;4997052;28;20467;-68
2023/05/11 04:41:08;;;;;;;3.37;2.90;;;11.80;99.40;;;;;;4994843;28;21028;-68
2023/05/11 04:43:36;;;;;;;3.00;2.70;;;11.80;99.20;;;;;;4993518;28;20535;-69
2023/05/11 04:46:03;;;;;;;1.73;1.37;;;11.80;99.30;;;;;;4994334;28;20466;-68
2023/05/11 04:48:31;;;;;;;1.90;1.50;;;11.80;98.60;;;;;;4995707;28;20443;-68
2023/05/11 04:51:03;;;;;;;2.83;1.07;;;11.80;98.40;;;;;;4999071;28;20450;-69
2023/05/11 04:53:32;;;;;;;2.07;1.10;;;11.80;98.20;;;;;;4999304;28;20485;-69
2023/05/11 04:56:00;;;;;;;2.50;1.50;;;11.80;98.20;;;;;;4993763;28;20470;-70
2023/05/11 04:58:28;;;;;;;1.70;1.57;;;11.80;98.80;;;;;;4991499;28;21016;-69
2023/05/11 05:00:56;;;;;;;3.30;1.10;;;11.80;98.60;;;;;;4993518;28;20442;-69
2023/05/11 05:03:24;;;;;;;2.50;1.70;;;11.90;98.70;;;;;;4991138;28;20533;-68
2023/05/11 05:05:52;;;;;;;3.70;1.43;;;11.90;99.10;;;;;;5000212;28;20562;-68
2023/05/11 05:08:20;;;;;;;1.50;1.30;;;11.90;98.70;;;;;;5004034;28;20463;-69
2023/05/11 05:10:49;;;;;;;1.83;1.67;;;11.90;98.70;;;;;;4997171;28;20530;-67
2023/05/11 05:13:17;;;;;;;2.70;1.40;;;12.00;99.00;;;;;;5000615;28;20820;-68
2023/05/11 05:15:45;;;;;;;3.20;1.27;;;12.00;98.00;;;;;;5010858;28;20458;-68
2023/05/11 05:18:13;;;;;;;2.50;1.23;;;12.00;98.10;;;;;;5008944;28;20869;-68
2023/05/11 05:20:41;;;;;;;4.00;1.67;;;12.00;97.50;;;;;;5010233;28;20482;-68
2023/05/11 05:23:09;;;;;;;2.50;1.37;;;12.00;98.40;;;;;;5013517;28;20473;-68
2023/05/11 05:25:37;;;;;;;1.57;1.23;;;12.10;98.20;;;;;;5010352;28;21289;-67
2023/05/11 05:28:06;;;;;;;6.60;1.63;;;12.10;97.80;;;;;;5010008;28;20525;-67
2023/05/11 05:30:35;;;;;;;1.63;1.33;;;12.10;97.80;;;;;;5008418;28;20450;-68
2023/05/11 05:33:03;;;;;;;2.30;1.50;;;12.20;97.50;;;;;;5009032;28;20472;-67
2023/05/11 05:35:31;;;;;;;3.00;1.57;;;12.20;97.30;;;;;;5009450;28;20478;-66
2023/05/11 05:38:00;;;;;;;3.80;1.30;;;12.20;97.30;;;;;;5009082;28;20500;-67
2023/05/11 05:40:27;;;;;;;2.50;1.40;;;12.30;96.50;;;;;;5008976;28;20498;-67
2023/05/11 05:42:55;;;;;;;1.50;1.40;;;12.30;96.60;;;;;;5007821;28;20446;-67
2023/05/11 05:45:25;;;;;;;1.77;1.50;;;12.40;96.50;;;;;;5009360;28;20461;-68
2023/05/11 05:47:53;;;;;;;1.50;1.37;;;12.40;96.80;;;;;;5009040;28;20484;-66
2023/05/11 05:50:21;;;;;;;2.87;1.60;;;12.40;97.30;;;;;;5008996;28;20471;-67
2023/05/11 05:52:49;;;;;;;2.00;1.23;;;12.50;97.00;;;;;;5009407;28;20457;-67
2023/05/11 05:55:17;;;;;;;1.73;1.63;;;12.50;96.60;;;;;;5010380;28;20540;-67
2023/05/11 05:57:45;;;;;;;2.07;1.33;;;12.50;95.90;;;;;;5010856;28;20502;-68
2023/05/11 06:00:13;;;;;;;4.93;1.97;;;12.50;96.00;;;;;;5010059;28;20444;-68
2023/05/11 06:02:43;;;;;;;1.70;1.47;;;12.50;96.30;;;;;;5009625;28;20554;-68
2023/05/11 06:05:11;;;;;;;3.10;1.40;;;12.60;95.50;;;;;;5011617;28;20471;-68
2023/05/11 06:07:39;;;;;;;2.23;1.30;;;12.70;96.00;;;;;;5010757;28;21029;-68
2023/05/11 06:10:07;;;;;;;6.27;1.47;;;12.80;96.20;;;;;;5010224;28;20532;-68
2023/05/11 06:12:35;;;;;;;3.40;1.83;;;12.90;96.00;;;;;;5009253;28;20487;-68
2023/05/11 06:15:03;;;;;;;1.77;1.63;;;12.90;95.30;;;;;;5010186;28;20905;-68
2023/05/11 06:17:31;;;;;;;1.43;1.20;;;13.00;95.50;;;;;;5009921;28;20547;-68
2023/05/11 06:20:00;;;;;;;2.33;1.70;;;12.90;95.30;;;;;;5010330;28;20531;-68
2023/05/11 06:22:28;;;;;;;4.60;1.83;;;13.00;95.30;;;;;;5009098;28;20448;-68
2023/05/11 06:24:56;;;;;;;1.50;1.40;;;13.00;96.10;;;;;;5009918;28;20503;-67
2023/05/11 06:27:24;;;;;;;3.00;1.70;;;13.10;95.40;;;;;;5010150;28;20450;-68
2023/05/11 06:29:52;;;;;;;2.73;1.50;;;13.20;95.20;;;;;;5009903;28;20452;-68
2023/05/11 06:32:20;;;;;;;1.70;1.60;;;13.10;94.40;;;;;;5009645;28;20453;-68
2023/05/11 06:34:48;;;;;;;6.53;1.80;;;13.00;95.30;;;;;;5009736;28;20530;-67
2023/05/11 06:37:19;;;;;;;2.20;2.00;;;13.10;95.80;;;;;;5010065;28;20445;-68
2023/05/11 06:39:47;;;;;;;2.77;1.90;;;13.20;94.60;;;;;;5010099;28;20988;-68
2023/05/11 06:42:15;;;;;;;2.50;2.00;;;13.10;95.30;;;;;;5009385;28;20447;-68
2023/05/11 06:44:43;;;;;;;2.30;2.10;;;13.10;95.20;;;;;;5009286;28;20473;-68
2023/05/11 06:47:11;;;;;;;1.80;1.60;;;13.10;96.70;;;;;;5009992;28;21108;-67
2023/05/11 06:49:40;;;;;;;2.80;1.63;;;13.20;96.20;;;;;;5010312;28;20540;-68
2023/05/11 06:52:08;;;;;;;2.60;1.70;;;13.20;96.30;;;;;;5009590;28;20485;-68
2023/05/11 06:54:37;;;;;;;2.13;1.80;;;13.10;95.40;;;;;;5009101;28;20468;-68
2023/05/11 06:57:05;;;;;;;3.00;1.93;;;13.10;96.80;;;;;;5009898;28;20445;-68
2023/05/11 06:59:33;;;;;;;3.53;2.10;;;13.10;96.40;;;;;;5009981;28;20485;-68
2023/05/11 07:02:01;;;;;;;2.60;2.33;;;13.10;96.70;;;;;;5010379;28;20552;-69
2023/05/11 07:04:28;;;;;;;5.13;3.70;;;13.10;97.80;;;;;;5012628;28;20444;-68
2023/05/11 07:06:57;;;;;;;2.10;1.90;;;13.20;97.20;;;;;;5013694;28;20438;-68
2023/05/11 07:09:25;;;;;;;2.30;2.03;;;13.20;97.50;;;;;;5013310;28;20442;-68
2023/05/11 07:11:54;;;;;;;2.57;2.37;;;13.10;95.80;;;;;;5013981;28;20453;-68
2023/05/11 07:14:22;;;;;;;2.43;2.20;;;13.20;97.70;;;;;;5012057;28;20459;-69
2023/05/11 07:16:51;;;;;;;2.37;2.17;;;13.20;97.30;;;;;;5013315;28;20534;-69
2023/05/11 07:19:19;;;;;;;2.40;2.20;;;13.10;96.30;;;;;;5013270;28;20484;-68
2023/05/11 07:21:47;;;;;;;2.80;2.10;;;13.10;97.20;;;;;;5013190;28;20489;-68
2023/05/11 07:24:15;;;;;;;2.27;2.07;;;13.10;97.80;;;;;;5012039;28;20532;-68
2023/05/11 07:26:43;;;;;;;2.37;2.17;;;13.10;98.10;;;;;;5013194;28;20539;-68
2023/05/11 07:29:12;;;;;;;3.20;2.13;;;13.30;98.00;;;;;;5013052;28;20446;-68
2023/05/11 07:31:41;;;;;;;2.60;2.40;;;13.30;97.30;;;;;;5013110;28;20445;-68
2023/05/11 07:34:09;;;;;;;2.33;2.13;;;13.40;97.40;;;;;;5011662;28;20497;-68
2023/05/11 07:36:37;;;;;;;3.53;3.17;;;13.20;97.90;;;;;;5012796;28;20464;-68
2023/05/11 07:39:05;;;;;;;3.50;2.63;;;13.20;97.90;;;;;;5013000;28;20487;-70
2023/05/11 07:41:33;;;;;;;2.97;2.60;;;13.10;98.40;;;;;;5013306;28;20828;-69
2023/05/11 07:44:01;;;;;;;2.63;2.43;;;13.00;99.30;;;;;;5011661;28;21015;-66
2023/05/11 07:46:30;;;;;;;3.00;2.80;;;13.00;99.90;;;;;;5012787;28;20499;-67
2023/05/11 07:48:59;;;;;;;4.03;2.73;;;13.20;98.80;;;;;;5012539;28;20968;-68
2023/05/11 07:51:42;;;;;;;3.00;2.70;;;13.30;98.40;;;;;;5012735;28;20544;-68
2023/05/11 07:54:10;;;;;;;3.17;2.87;;;13.30;98.30;;;;;;5011343;28;20539;-67
2023/05/11 07:56:38;;;;;;;3.27;2.97;;;13.30;98.50;;;;;;5012296;28;20556;-67
2023/05/11 07:59:06;;;;;;;5.13;3.40;;;13.30;99.20;;;;;;5012488;28;20476;-67
2023/05/11 08:01:35;;;;;;;3.58;3.10;;;13.30;99.80;;;;;;5011842;28;20440;-67
2023/05/11 08:04:03;;;;;;;2.80;2.60;;;13.30;99.00;;;;;;5011429;28;20209;-67
2023/05/11 08:06:31;;;;;;;2.70;2.50;;;13.20;98.50;;;;;;5012322;28;20501;-67
2023/05/11 08:08:59;;;;;;;3.10;2.90;;;13.10;99.50;;;;;;5012395;28;20434;-67
2023/05/11 08:11:27;;;;;;;4.70;3.30;;;13.00;99.90;;;;;;5012277;28;20452;-67
2023/05/11 08:13:55;;;;;;;3.43;3.13;;;13.00;99.70;;;;;;5010019;28;20447;-67
2023/05/11 08:16:23;;;;;;;4.87;3.40;;;13.00;99.00;;;;;;5012249;28;20467;-67
2023/05/11 08:18:52;;;;;;;4.50;3.63;;;13.00;99.90;;;;;;5012267;28;20534;-67
2023/05/11 08:21:20;;;;;;;4.20;3.80;;;13.10;99.90;;;;;;5012011;28;20553;-67
2023/05/11 08:23:48;;;;;;;4.50;4.10;;;13.20;99.90;;;;;;5010846;28;20473;-67
2023/05/11 08:26:16;;;;;;;4.67;3.50;;;13.20;99.80;;;;;;5011980;28;20843;-66
2023/05/11 08:28:44;;;;;;;6.43;3.70;;;13.20;99.90;;;;;;5011807;28;20822;-66
2023/05/11 08:31:13;;;;;;;4.03;3.63;;;13.30;99.90;;;;;;5011704;28;20450;-67
2023/05/11 08:33:41;;;;;;;5.50;3.90;;;13.30;99.40;;;;;;5010831;28;20469;-67
2023/05/11 08:36:12;;;;;;;5.97;5.00;;;13.10;98.50;;;;;;5011573;28;20538;-66
2023/05/11 08:38:39;;;;;;;9.40;4.50;;;13.10;99.90;;;;;;5012019;28;20526;-66
2023/05/11 08:41:07;;;;;;;6.47;4.30;;;13.30;99.90;;;;;;5011736;28;20519;-66
2023/05/11 08:43:36;;;;;;;4.60;4.20;;;13.40;99.90;;;;;;5010543;28;20536;-66
2023/05/11 08:46:07;;;;;;;4.60;4.20;;;13.40;99.90;;;;;;5011573;28;21035;-67
2023/05/11 08:48:35;;;;;;;4.27;3.60;;;13.50;99.90;;;;;;5011758;28;20447;-66
2023/05/11 08:51:04;;;;;;;3.87;3.30;;;13.50;99.70;;;;;;5011862;28;20492;-67
2023/05/11 08:53:33;;;;;;;4.90;3.87;;;13.60;99.90;;;;;;5010400;28;20449;-67
2023/05/11 08:56:05;;;;;;;5.03;4.13;;;13.50;99.80;;;;;;5011713;28;20534;-66
2023/05/11 08:58:36;;;;;;;4.10;3.70;;;13.50;99.90;;;;;;5011476;28;21122;-66
2023/05/11 09:01:05;;;;;;;4.50;4.20;;;13.40;98.70;;;;;;5011395;28;20533;-66
2023/05/11 09:03:35;;;;;;;4.97;3.40;;;13.40;99.90;;;;;;5010385;28;21058;-66
2023/05/11 09:06:06;;;;;;;5.00;3.90;;;13.40;99.90;;;;;;5011153;28;20468;-66
2023/05/11 09:08:37;;;;;;;6.43;4.10;;;13.50;99.20;;;;;;5011608;28;20504;-66
2023/05/11 09:11:06;;;;;;;6.47;4.83;;;13.50;99.90;;;;;;5011442;28;20439;-67
2023/05/11 09:13:34;;;;;;;6.13;3.77;;;13.60;99.90;;;;;;5010170;28;20447;-66
2023/05/11 09:16:02;;;;;;;4.50;3.53;;;13.80;99.90;;;;;;5011209;28;20477;-67
2023/05/11 09:18:30;;;;;;;4.83;4.37;;;13.80;99.90;;;;;;5011016;28;21176;-67
2023/05/11 09:21:00;;;;;;;4.03;3.73;;;13.80;99.90;;;;;;5011355;28;20491;-67
2023/05/11 09:23:28;;;;;;;3.93;3.27;;;13.80;99.90;;;;;;5010241;28;20509;-67
2023/05/11 09:25:57;;;;;;;5.93;4.40;;;13.80;99.90;;;;;;5011321;28;20466;-67
2023/05/11 09:28:26;;;;;;;7.53;3.87;;;13.70;99.90;;;;;;5011280;28;20492;-67
2023/05/11 09:31:02;;;;;;;4.10;3.40;;;13.70;99.90;;;;;;5011657;28;20449;-67
2023/05/11 09:33:30;;;;;;;6.00;4.10;;;13.50;99.90;;;;;;5010477;28;20893;-66
2023/05/11 09:35:58;;;;;;;4.30;3.70;;;13.50;99.90;;;;;;5011214;28;20475;-66
2023/05/11 09:38:26;;;;;;;4.70;3.47;;;13.40;99.90;;;;;;5011369;28;20460;-66
2023/05/11 09:40:56;;;;;;;4.27;3.87;;;13.20;99.90;;;;;;5011136;28;20856;-66
2023/05/11 09:43:26;;;;;;;4.70;4.27;;;13.20;99.90;;;;;;5010603;28;20468;-67
2023/05/11 09:45:55;;;;;;;5.00;4.50;;;13.30;99.90;;;;;;5011073;28;21038;-67
2023/05/11 09:48:28;;;;;;;5.07;3.97;;;13.20;99.90;;;;;;5011088;28;20459;-66
2023/05/11 09:51:02;;;;;;;4.33;2.63;;;13.30;99.90;;;;;;5010874;28;20439;-66
2023/05/11 09:53:39;;;;;;;4.30;3.90;;;13.40;99.90;;;;;;5009776;28;20464;-67
2023/05/11 09:56:11;;;;;;;3.87;3.57;;;13.20;99.50;;;;;;5010906;28;20555;-66
2023/05/11 09:58:50;;;;;;;4.17;3.47;;;13.20;99.90;;;;;;5010894;28;20445;-66
2023/05/11 10:01:28;;;;;;;5.50;4.37;;;13.30;99.90;;;;;;5010495;28;20477;-66
2023/05/11 10:03:56;;;;;;;2.73;2.53;;;13.30;99.90;;;;;;5009095;28;20531;-66
2023/05/11 10:06:45;;;;;;;3.20;2.90;;;13.30;99.50;;;;;;5010050;28;21060;-66
2023/05/11 10:09:15;;;;;;;4.13;3.67;;;13.30;99.90;;;;;;5010376;28;20451;-66
2023/05/11 10:11:46;;;;;;;3.87;2.90;;;13.40;99.90;;;;;;5010162;28;20859;-66
2023/05/11 10:14:14;;;;;;;3.40;3.20;;;13.70;99.90;;;;;;5008865;28;20442;-66
2023/05/11 10:16:43;;;;;;;3.70;3.30;;;13.70;99.90;;;;;;5010050;28;20506;-66
2023/05/11 10:19:13;;;;;;;3.37;3.07;;;13.70;99.90;;;;;;5010127;28;20445;-67
2023/05/11 10:21:41;;;;;;;3.40;3.10;;;13.80;99.80;;;;;;5010097;28;20469;-67
2023/05/11 10:24:10;;;;;;;2.80;2.60;;;13.80;98.60;;;;;;5008790;28;20469;-67
2023/05/11 10:26:38;;;;;;;4.70;3.90;;;13.80;98.60;;;;;;5009908;28;20469;-67
2023/05/11 10:29:09;;;;;;;3.10;2.80;;;13.60;99.20;;;;;;5009913;28;21042;-67
2023/05/11 10:31:37;;;;;;;3.60;3.10;;;13.40;98.80;;;;;;5009836;28;20468;-67
2023/05/11 10:34:07;;;;;;;3.90;3.47;;;13.30;99.20;;;;;;5008535;28;20453;-66
2023/05/11 10:36:35;;;;;;;6.30;3.30;;;13.40;99.90;;;;;;5010100;28;20465;-67
2023/05/11 10:39:03;;;;;;;4.23;3.80;;;13.40;99.90;;;;;;5013919;28;20504;-67
2023/05/11 10:41:45;;;;;;;4.10;3.63;;;13.30;99.90;;;;;;5013809;28;20562;-67
2023/05/11 10:44:48;;;;;;;4.07;3.67;;;13.20;99.90;;;;;;5012488;28;20528;-67
2023/05/11 10:47:59;;;;;;;3.40;3.17;;;13.30;99.90;;;;;;5004315;28;20441;-68
2023/05/11 10:50:41;;;;;;;2.97;2.77;;;13.40;99.90;;;;;;4952698;29;20442;-67
2023/05/11 10:53:41;;;;;;;5.00;3.47;;;13.30;99.30;;;;;;5005087;28;20511;-67
2023/05/11 10:56:23;;;;;;;3.60;3.30;;;13.50;99.90;;;;;;5013382;28;20456;-67
2023/05/11 10:59:21;;;;;;;3.37;3.07;;;13.70;99.90;;;;;;5013827;28;20434;-66
2023/05/11 11:01:53;;;;;;;3.23;3.03;;;13.70;99.80;;;;;;5013584;28;21172;-67
2023/05/11 11:04:23;;;;;;;4.10;3.70;;;13.60;99.30;;;;;;5012495;28;20448;-67
2023/05/11 11:07:05;;;;;;;3.57;3.27;;;13.40;99.20;;;;;;5013588;28;20827;-67
2023/05/11 11:09:52;;;;;;;4.90;3.03;;;13.40;99.90;;;;;;5013885;28;20951;-67
2023/05/11 11:12:21;;;;;;;3.43;3.13;;;13.50;99.90;;;;;;5013088;28;20831;-67
2023/05/11 11:15:01;;;;;;;5.33;4.37;;;13.40;99.20;;;;;;5013532;28;20464;-67
2023/05/11 11:17:31;;;;;;;2.90;2.57;;;13.40;99.90;;;;;;5013539;28;20468;-68
2023/05/11 11:20:03;;;;;;;3.50;2.10;;;13.40;99.00;;;;;;5013812;28;20858;-67
2023/05/11 11:22:45;;;;;;;2.73;2.37;;;13.40;97.60;;;;;;5012450;28;20457;-67
2023/05/11 11:25:15;;;;;;;4.87;2.63;;;13.50;98.90;;;;;;5013282;28;20555;-67
2023/05/11 11:27:58;;;;;;;2.50;2.30;;;13.60;99.50;;;;;;5012934;28;20955;-68
2023/05/11 11:30:29;;;;;;;3.60;2.83;;;13.80;99.20;;;;;;5013185;28;20485;-67
2023/05/11 11:33:31;;;;;;;4.60;3.10;;;13.80;97.80;;;;;;5011498;28;20447;-67
2023/05/11 11:36:01;;;;;;;3.40;3.10;;;13.90;98.30;;;;;;5012915;28;20476;-67
2023/05/11 11:38:31;;;;;;;3.97;2.77;;;13.90;99.50;;;;;;5013258;28;20448;-68
2023/05/11 11:40:59;;;;;;;3.13;2.83;;;14.00;98.20;;;;;;5012963;28;20851;-68
2023/05/11 11:43:45;;;;;;;2.77;2.57;;;14.00;97.60;;;;;;5011790;28;20456;-67
2023/05/11 11:46:27;;;;;;;3.03;2.80;;;13.90;97.70;;;;;;5012998;28;20467;-67
2023/05/11 11:49:08;;;;;;;2.70;2.50;;;13.90;97.70;;;;;;5013148;28;20503;-68
2023/05/11 11:51:39;;;;;;;3.40;2.67;;;14.00;96.30;;;;;;5013140;28;20437;-68
2023/05/11 11:54:08;;;;;;;2.30;1.80;;;14.10;97.50;;;;;;5011512;28;20466;-68
2023/05/11 11:56:44;;;;;;;2.00;1.90;;;14.20;93.80;;;;;;5026937;28;20468;-68
2023/05/11 11:59:13;;;;;;;3.83;1.97;;;14.30;96.20;;;;;;5032403;28;20551;-68
2023/05/11 12:01:44;;;;;;;2.33;2.13;;;14.70;97.80;;;;;;5032208;28;20468;-68
2023/05/11 12:04:43;;;;;;;2.30;2.10;;;15.00;93.30;;;;;;5030878;28;20472;-68
2023/05/11 12:07:13;;;;;;;2.53;2.30;;;14.90;93.00;;;;;;5032101;28;21020;-67
2023/05/11 12:09:41;;;;;;;2.27;2.07;;;14.80;92.50;;;;;;5032240;28;20449;-67
2023/05/11 12:12:10;;;;;;;2.17;1.97;;;14.80;94.00;;;;;;5031810;28;20471;-68
2023/05/11 12:14:40;;;;;;;2.20;1.97;;;14.90;93.20;;;;;;5031017;28;20473;-68
2023/05/11 12:17:14;;;;;;;2.20;1.83;;;15.00;92.00;;;;;;5032059;28;20536;-68
2023/05/11 12:19:43;;;;;;;2.00;1.80;;;15.00;91.40;;;;;;5029160;28;20445;-68
2023/05/11 12:22:15;;;;;;;2.50;2.30;;;15.00;90.90;;;;;;5010523;28;20568;-67
2023/05/11 12:24:43;;;;;;;2.63;2.00;;;15.10;92.20;;;;;;5010522;28;20466;-68
2023/05/11 12:27:11;;;;;;;2.77;1.80;;;15.20;89.60;;;;;;5011865;28;21002;-68
2023/05/11 12:29:40;;;;;;;1.70;1.60;;;15.50;89.40;;;;;;5011798;28;20541;-68
2023/05/11 12:32:12;;;;;;;3.10;1.77;;;15.80;88.80;;;;;;5010836;28;20545;-68
2023/05/11 12:34:41;;;;;;;2.50;1.87;;;16.00;86.50;;;;;;5010892;28;20476;-68
2023/05/11 12:37:09;;;;;;;1.60;1.50;;;16.00;85.60;;;;;;5011954;28;20440;-68
2023/05/11 12:39:38;;;;;;;1.83;1.60;;;15.90;84.60;;;;;;5011904;28;20484;-68
2023/05/11 12:42:06;;;;;;;1.30;1.20;;;15.90;81.30;;;;;;5011358;28;20476;-68
2023/05/11 12:44:35;;;;;;;1.53;1.13;;;15.90;81.50;;;;;;5010517;28;20438;-67
2023/05/11 12:47:03;;;;;;;1.00;0.87;;;15.90;79.50;;;;;;5011571;28;20493;-68
2023/05/11 12:49:31;;;;;;;2.03;1.00;;;16.00;75.70;;;;;;5011868;28;20449;-68
2023/05/11 12:52:06;;;;;;;1.00;0.77;;;16.20;79.30;;;;;;5007658;28;20431;-68
2023/05/11 12:54:36;;;;;;;1.20;1.07;;;16.40;72.00;;;;;;5001378;28;20461;-67
2023/05/11 12:57:09;;;;;;;2.33;1.47;;;16.70;73.80;;;;;;4994084;28;20464;-68
2023/05/11 12:59:38;;;;;;;3.37;3.10;;;16.70;72.80;;;;;;4991807;28;20543;-67
2023/05/11 13:02:11;;;;;;;2.83;2.57;;;16.60;72.30;;;;;;4991415;28;20482;-68
2023/05/11 13:04:40;;;;;;;3.00;2.80;;;16.70;74.60;;;;;;4991088;28;20457;-68